sensor_id;sensor_type;location;lat;lon;timestamp;pressure;altitude;pressure_sealevel;temperature;humidity
70930;BME280;58588;48.102;19.682;2023-02-02T00:02:28;99000.75;;;3.49;100.00
70930;BME280;58588;48.102;19.682;2023-02-02T00:05:30;98991.75;;;3.50;100.00
70930;BME280;58588;48.102;19.682;2023-02-02T00:08:32;98990.31;;;3.56;100.00
70930;BME280;58588;48.102;19.682;2023-02-02T00:15:04;98974.19;;;3.39;100.00
70930;BME280;58588;48.102;19.682;2023-02-02T00:18:07;98971.34;;;3.41;100.00
70930;BME280;58588;48.102;19.682;2023-02-02T00:21:09;98977.59;;;3.32;100.00
70930;BME280;58588;48.102;19.682;2023-02-02T00:24:13;98957.50;;;3.37;100.00
70930;BME280;58588;48.102;19.682;2023-02-02T00:27:17;98938.94;;;3.45;100.00
70930;BME280;58588;48.102;19.682;2023-02-02T00:30:19;98939.38;;;3.41;100.00
70930;BME280;58588;48.102;19.682;2023-02-02T00:33:22;98939.47;;;3.49;100.00
70930;BME280;58588;48.102;19.682;2023-02-02T00:36:25;98944.25;;;3.45;100.00
70930;BME280;58588;48.102;19.682;2023-02-02T00:39:27;98922.66;;;3.48;100.00
70930;BME280;58588;48.102;19.682;2023-02-02T00:42:29;98914.13;;;3.45;100.00
70930;BME280;58588;48.102;19.682;2023-02-02T00:45:31;98899.13;;;3.44;100.00
70930;BME280;58588;48.102;19.682;2023-02-02T00:48:34;98912.91;;;3.39;100.00
70930;BME280;58588;48.102;19.682;2023-02-02T00:51:37;98924.50;;;3.30;100.00
70930;BME280;58588;48.102;19.682;2023-02-02T00:54:39;98947.59;;;3.30;100.00
70930;BME280;58588;48.102;19.682;2023-02-02T00:57:41;98950.22;;;3.21;100.00
70930;BME280;58588;48.102;19.682;2023-02-02T01:00:44;98957.69;;;3.18;100.00
70930;BME280;58588;48.102;19.682;2023-02-02T01:03:47;98959.47;;;3.17;100.00
70930;BME280;58588;48.102;19.682;2023-02-02T01:06:49;98951.03;;;3.22;100.00
70930;BME280;58588;48.102;19.682;2023-02-02T01:09:51;98943.28;;;3.29;100.00
70930;BME280;58588;48.102;19.682;2023-02-02T01:12:53;98953.53;;;3.23;100.00
70930;BME280;58588;48.102;19.682;2023-02-02T01:15:56;98947.53;;;3.21;100.00
70930;BME280;58588;48.102;19.682;2023-02-02T01:19:00;98947.38;;;3.23;100.00
70930;BME280;58588;48.102;19.682;2023-02-02T01:22:02;98960.41;;;3.08;100.00
70930;BME280;58588;48.102;19.682;2023-02-02T01:25:04;98965.72;;;3.08;100.00
70930;BME280;58588;48.102;19.682;2023-02-02T01:28:06;98971.56;;;3.12;100.00
70930;BME280;58588;48.102;19.682;2023-02-02T01:31:09;98976.81;;;3.04;100.00
70930;BME280;58588;48.102;19.682;2023-02-02T01:34:13;98952.34;;;3.00;100.00
70930;BME280;58588;48.102;19.682;2023-02-02T01:37:15;98966.03;;;3.05;100.00
70930;BME280;58588;48.102;19.682;2023-02-02T01:40:17;98979.41;;;2.95;100.00
70930;BME280;58588;48.102;19.682;2023-02-02T01:43:22;98966.09;;;2.95;100.00
70930;BME280;58588;48.102;19.682;2023-02-02T01:46:28;98967.59;;;2.80;100.00
70930;BME280;58588;48.102;19.682;2023-02-02T01:49:32;98985.38;;;2.80;100.00
70930;BME280;58588;48.102;19.682;2023-02-02T01:52:35;98991.03;;;2.77;100.00
70930;BME280;58588;48.102;19.682;2023-02-02T01:55:38;98993.44;;;2.70;100.00
70930;BME280;58588;48.102;19.682;2023-02-02T01:58:42;98986.81;;;2.74;100.00
70930;BME280;58588;48.102;19.682;2023-02-02T02:01:46;99002.75;;;2.84;100.00
70930;BME280;58588;48.102;19.682;2023-02-02T02:04:51;98990.88;;;2.78;100.00
70930;BME280;58588;48.102;19.682;2023-02-02T02:07:56;98984.16;;;2.74;100.00
70930;BME280;58588;48.102;19.682;2023-02-02T02:11:01;98989.78;;;2.71;100.00
70930;BME280;58588;48.102;19.682;2023-02-02T02:14:06;98962.53;;;2.59;100.00
70930;BME280;58588;48.102;19.682;2023-02-02T02:17:58;98957.41;;;2.48;100.00
70930;BME280;58588;48.102;19.682;2023-02-02T02:21:26;98955.75;;;2.47;100.00
70930;BME280;58588;48.102;19.682;2023-02-02T02:25:15;98943.72;;;2.43;100.00
70930;BME280;58588;48.102;19.682;2023-02-02T02:28:57;98933.63;;;2.47;100.00
70930;BME280;58588;48.102;19.682;2023-02-02T02:32:18;98943.13;;;2.49;100.00
70930;BME280;58588;48.102;19.682;2023-02-02T02:35:30;98967.50;;;2.45;100.00
70930;BME280;58588;48.102;19.682;2023-02-02T02:38:40;98982.88;;;2.51;100.00
70930;BME280;58588;48.102;19.682;2023-02-02T02:41:48;98979.78;;;2.55;100.00
70930;BME280;58588;48.102;19.682;2023-02-02T02:44:52;98981.19;;;2.50;100.00
70930;BME280;58588;48.102;19.682;2023-02-02T02:47:57;98981.75;;;2.53;100.00
70930;BME280;58588;48.102;19.682;2023-02-02T02:51:07;98961.06;;;2.47;100.00
70930;BME280;58588;48.102;19.682;2023-02-02T02:54:10;98949.34;;;2.40;100.00
70930;BME280;58588;48.102;19.682;2023-02-02T02:57:42;98949.22;;;2.32;100.00
70930;BME280;58588;48.102;19.682;2023-02-02T03:00:57;98927.56;;;2.27;100.00
70930;BME280;58588;48.102;19.682;2023-02-02T03:04:09;98939.34;;;2.24;100.00
70930;BME280;58588;48.102;19.682;2023-02-02T03:07:20;98946.47;;;2.24;100.00
70930;BME280;58588;48.102;19.682;2023-02-02T03:10:26;98953.50;;;2.15;100.00
70930;BME280;58588;48.102;19.682;2023-02-02T03:13:30;98952.91;;;2.21;100.00
70930;BME280;58588;48.102;19.682;2023-02-02T03:16:32;98958.22;;;2.21;100.00
70930;BME280;58588;48.102;19.682;2023-02-02T03:19:36;98959.25;;;2.10;100.00
70930;BME280;58588;48.102;19.682;2023-02-02T03:22:38;98947.50;;;2.03;100.00
70930;BME280;58588;48.102;19.682;2023-02-02T03:25:40;98947.38;;;2.05;100.00
70930;BME280;58588;48.102;19.682;2023-02-02T03:28:42;98953.06;;;2.20;100.00
70930;BME280;58588;48.102;19.682;2023-02-02T03:31:45;98949.31;;;2.12;100.00
70930;BME280;58588;48.102;19.682;2023-02-02T03:34:49;98950.72;;;2.07;100.00
70930;BME280;58588;48.102;19.682;2023-02-02T03:37:51;98951.97;;;2.12;100.00
70930;BME280;58588;48.102;19.682;2023-02-02T03:40:53;98949.50;;;2.01;100.00
70930;BME280;58588;48.102;19.682;2023-02-02T03:43:55;98966.56;;;1.99;100.00
70930;BME280;58588;48.102;19.682;2023-02-02T03:46:57;98969.50;;;1.96;100.00
70930;BME280;58588;48.102;19.682;2023-02-02T03:50:01;98967.41;;;1.99;100.00
70930;BME280;58588;48.102;19.682;2023-02-02T03:53:03;98968.97;;;1.92;100.00
70930;BME280;58588;48.102;19.682;2023-02-02T03:56:06;98969.50;;;1.96;100.00
70930;BME280;58588;48.102;19.682;2023-02-02T03:59:08;98961.13;;;1.91;100.00
70930;BME280;58588;48.102;19.682;2023-02-02T04:02:10;98966.44;;;1.91;100.00
70930;BME280;58588;48.102;19.682;2023-02-02T04:05:13;98963.34;;;1.95;100.00
70930;BME280;58588;48.102;19.682;2023-02-02T04:08:15;98969.09;;;1.91;100.00
70930;BME280;58588;48.102;19.682;2023-02-02T04:11:19;98957.78;;;1.88;100.00
70930;BME280;58588;48.102;19.682;2023-02-02T04:14:21;98964.91;;;1.88;100.00
70930;BME280;58588;48.102;19.682;2023-02-02T04:17:23;98967.44;;;1.90;100.00
70930;BME280;58588;48.102;19.682;2023-02-02T04:20:26;98970.22;;;1.88;100.00
70930;BME280;58588;48.102;19.682;2023-02-02T04:23:29;98968.25;;;1.90;100.00
70930;BME280;58588;48.102;19.682;2023-02-02T04:26:31;98970.09;;;1.80;100.00
70930;BME280;58588;48.102;19.682;2023-02-02T04:29:33;98977.94;;;1.81;100.00
70930;BME280;58588;48.102;19.682;2023-02-02T04:32:35;98965.50;;;1.82;100.00
70930;BME280;58588;48.102;19.682;2023-02-02T04:35:38;98976.66;;;1.85;100.00
70930;BME280;58588;48.102;19.682;2023-02-02T04:38:40;98981.19;;;1.66;100.00
70930;BME280;58588;48.102;19.682;2023-02-02T04:41:42;98973.75;;;1.79;100.00
70930;BME280;58588;48.102;19.682;2023-02-02T04:44:44;98973.06;;;1.67;100.00
70930;BME280;58588;48.102;19.682;2023-02-02T04:47:46;98977.53;;;1.67;100.00
70930;BME280;58588;48.102;19.682;2023-02-02T04:50:50;98983.16;;;1.64;100.00
70930;BME280;58588;48.102;19.682;2023-02-02T04:53:52;98987.91;;;1.70;100.00
70930;BME280;58588;48.102;19.682;2023-02-02T04:56:54;98989.16;;;1.66;100.00
70930;BME280;58588;48.102;19.682;2023-02-02T04:59:56;99003.69;;;1.61;100.00
70930;BME280;58588;48.102;19.682;2023-02-02T05:02:59;98995.59;;;1.63;100.00
70930;BME280;58588;48.102;19.682;2023-02-02T05:06:06;99002.44;;;1.56;100.00
70930;BME280;58588;48.102;19.682;2023-02-02T05:09:09;98994.47;;;1.56;100.00
70930;BME280;58588;48.102;19.682;2023-02-02T05:12:11;98990.69;;;1.58;100.00
70930;BME280;58588;48.102;19.682;2023-02-02T05:15:13;98997.69;;;1.59;100.00
70930;BME280;58588;48.102;19.682;2023-02-02T05:18:16;99013.91;;;1.56;100.00
70930;BME280;58588;48.102;19.682;2023-02-02T05:21:19;99010.41;;;1.46;100.00
70930;BME280;58588;48.102;19.682;2023-02-02T05:24:21;99019.06;;;1.48;100.00
70930;BME280;58588;48.102;19.682;2023-02-02T05:27:23;99029.13;;;1.54;100.00
70930;BME280;58588;48.102;19.682;2023-02-02T05:30:25;99032.63;;;1.55;100.00
70930;BME280;58588;48.102;19.682;2023-02-02T05:33:27;99032.09;;;1.51;100.00
70930;BME280;58588;48.102;19.682;2023-02-02T05:36:31;99032.78;;;1.53;100.00
70930;BME280;58588;48.102;19.682;2023-02-02T05:39:33;99037.94;;;1.36;100.00
70930;BME280;58588;48.102;19.682;2023-02-02T05:42:35;99037.25;;;1.43;100.00
70930;BME280;58588;48.102;19.682;2023-02-02T05:45:37;99047.16;;;1.41;100.00
70930;BME280;58588;48.102;19.682;2023-02-02T05:48:39;99052.63;;;1.40;100.00
70930;BME280;58588;48.102;19.682;2023-02-02T05:51:45;99056.53;;;1.36;100.00
70930;BME280;58588;48.102;19.682;2023-02-02T05:54:47;99060.75;;;1.38;100.00
70930;BME280;58588;48.102;19.682;2023-02-02T05:57:50;99055.81;;;1.43;100.00
70930;BME280;58588;48.102;19.682;2023-02-02T06:00:52;99064.78;;;1.42;100.00
70930;BME280;58588;48.102;19.682;2023-02-02T06:03:54;99071.78;;;1.33;100.00
70930;BME280;58588;48.102;19.682;2023-02-02T06:06:57;99080.56;;;1.34;100.00
70930;BME280;58588;48.102;19.682;2023-02-02T06:09:59;99081.66;;;1.31;100.00
70930;BME280;58588;48.102;19.682;2023-02-02T06:13:01;99083.78;;;1.28;100.00
70930;BME280;58588;48.102;19.682;2023-02-02T06:16:04;99088.69;;;1.32;100.00
70930;BME280;58588;48.102;19.682;2023-02-02T06:19:06;99082.78;;;1.29;100.00
70930;BME280;58588;48.102;19.682;2023-02-02T06:22:09;99095.66;;;1.33;100.00
70930;BME280;58588;48.102;19.682;2023-02-02T06:25:11;99100.13;;;1.33;100.00
70930;BME280;58588;48.102;19.682;2023-02-02T06:28:13;99099.72;;;1.28;100.00
70930;BME280;58588;48.102;19.682;2023-02-02T06:31:16;99110.75;;;1.33;100.00
70930;BME280;58588;48.102;19.682;2023-02-02T06:34:18;99112.69;;;1.31;100.00
70930;BME280;58588;48.102;19.682;2023-02-02T06:37:22;99107.66;;;1.28;100.00
70930;BME280;58588;48.102;19.682;2023-02-02T06:40:24;99113.81;;;1.28;100.00
70930;BME280;58588;48.102;19.682;2023-02-02T06:43:26;99098.16;;;1.25;100.00
70930;BME280;58588;48.102;19.682;2023-02-02T06:46:29;99102.66;;;1.34;100.00
70930;BME280;58588;48.102;19.682;2023-02-02T06:49:31;99091.88;;;1.36;100.00
70930;BME280;58588;48.102;19.682;2023-02-02T06:52:34;99095.13;;;1.40;100.00
70930;BME280;58588;48.102;19.682;2023-02-02T06:55:36;99096.78;;;1.41;100.00
70930;BME280;58588;48.102;19.682;2023-02-02T06:58:38;99112.88;;;1.49;100.00
70930;BME280;58588;48.102;19.682;2023-02-02T07:01:40;99108.66;;;1.56;100.00
70930;BME280;58588;48.102;19.682;2023-02-02T07:04:42;99107.72;;;1.57;100.00
70930;BME280;58588;48.102;19.682;2023-02-02T07:07:46;99114.84;;;1.66;100.00
70930;BME280;58588;48.102;19.682;2023-02-02T07:10:48;99110.94;;;1.70;100.00
70930;BME280;58588;48.102;19.682;2023-02-02T07:13:50;99114.41;;;1.61;100.00
70930;BME280;58588;48.102;19.682;2023-02-02T07:16:52;99113.31;;;1.64;100.00
70930;BME280;58588;48.102;19.682;2023-02-02T07:19:54;99120.59;;;1.81;100.00
70930;BME280;58588;48.102;19.682;2023-02-02T07:22:58;99115.56;;;1.78;100.00
70930;BME280;58588;48.102;19.682;2023-02-02T07:26:03;99129.13;;;1.84;100.00
70930;BME280;58588;48.102;19.682;2023-02-02T07:29:05;99128.44;;;1.92;100.00
70930;BME280;58588;48.102;19.682;2023-02-02T07:32:07;99129.66;;;1.98;100.00
70930;BME280;58588;48.102;19.682;2023-02-02T07:35:09;99131.50;;;1.97;100.00
70930;BME280;58588;48.102;19.682;2023-02-02T07:38:13;99138.78;;;1.95;100.00
70930;BME280;58588;48.102;19.682;2023-02-02T07:41:15;99134.03;;;1.99;100.00
70930;BME280;58588;48.102;19.682;2023-02-02T07:44:17;99142.97;;;2.07;100.00
70930;BME280;58588;48.102;19.682;2023-02-02T07:47:19;99133.31;;;2.06;100.00
70930;BME280;58588;48.102;19.682;2023-02-02T07:50:21;99150.22;;;2.15;100.00
70930;BME280;58588;48.102;19.682;2023-02-02T07:53:24;99141.28;;;2.26;100.00
70930;BME280;58588;48.102;19.682;2023-02-02T07:56:27;99147.00;;;2.31;100.00
70930;BME280;58588;48.102;19.682;2023-02-02T07:59:29;99140.44;;;2.35;100.00
70930;BME280;58588;48.102;19.682;2023-02-02T08:02:31;99152.44;;;2.49;100.00
70930;BME280;58588;48.102;19.682;2023-02-02T08:05:33;99155.38;;;2.55;100.00
70930;BME280;58588;48.102;19.682;2023-02-02T08:08:36;99157.19;;;2.55;100.00
70930;BME280;58588;48.102;19.682;2023-02-02T08:11:38;99170.34;;;2.66;100.00
70930;BME280;58588;48.102;19.682;2023-02-02T08:14:40;99173.84;;;2.66;100.00
70930;BME280;58588;48.102;19.682;2023-02-02T08:17:44;99181.72;;;2.58;100.00
70930;BME280;58588;48.102;19.682;2023-02-02T08:20:49;99164.13;;;2.75;100.00
70930;BME280;58588;48.102;19.682;2023-02-02T08:23:53;99159.13;;;2.72;100.00
70930;BME280;58588;48.102;19.682;2023-02-02T08:26:55;99172.94;;;2.85;100.00
70930;BME280;58588;48.102;19.682;2023-02-02T08:29:57;99178.53;;;2.92;100.00
70930;BME280;58588;48.102;19.682;2023-02-02T08:32:59;99181.31;;;3.00;100.00
70930;BME280;58588;48.102;19.682;2023-02-02T08:36:02;99187.75;;;2.98;100.00
70930;BME280;58588;48.102;19.682;2023-02-02T08:39:09;99189.75;;;3.23;100.00
70930;BME280;58588;48.102;19.682;2023-02-02T08:42:12;99193.78;;;3.37;100.00
70930;BME280;58588;48.102;19.682;2023-02-02T08:45:14;99204.66;;;3.16;100.00
70930;BME280;58588;48.102;19.682;2023-02-02T08:48:16;99196.22;;;3.20;100.00
70930;BME280;58588;48.102;19.682;2023-02-02T08:51:19;99211.31;;;3.30;100.00
70930;BME280;58588;48.102;19.682;2023-02-02T08:54:22;99174.22;;;3.46;100.00
70930;BME280;58588;48.102;19.682;2023-02-02T08:57:26;99186.53;;;3.57;100.00
70930;BME280;58588;48.102;19.682;2023-02-02T09:00:28;99178.75;;;3.63;100.00
70930;BME280;58588;48.102;19.682;2023-02-02T09:03:30;99195.94;;;3.79;100.00
70930;BME280;58588;48.102;19.682;2023-02-02T09:06:33;99203.41;;;3.93;100.00
70930;BME280;58588;48.102;19.682;2023-02-02T09:09:39;99191.38;;;4.07;100.00
70930;BME280;58588;48.102;19.682;2023-02-02T09:12:41;99201.66;;;4.01;100.00
70930;BME280;58588;48.102;19.682;2023-02-02T09:15:43;99203.25;;;4.30;100.00
70930;BME280;58588;48.102;19.682;2023-02-02T09:18:45;99201.00;;;4.17;100.00
70930;BME280;58588;48.102;19.682;2023-02-02T09:21:48;99198.53;;;4.24;100.00
70930;BME280;58588;48.102;19.682;2023-02-02T09:24:52;99195.03;;;4.23;100.00
70930;BME280;58588;48.102;19.682;2023-02-02T09:27:54;99199.38;;;4.24;100.00
70930;BME280;58588;48.102;19.682;2023-02-02T09:31:00;99206.25;;;4.09;100.00
70930;BME280;58588;48.102;19.682;2023-02-02T09:34:02;99197.88;;;4.04;100.00
70930;BME280;58588;48.102;19.682;2023-02-02T09:37:05;99199.75;;;3.94;100.00
70930;BME280;58588;48.102;19.682;2023-02-02T09:40:13;99199.53;;;4.23;100.00
70930;BME280;58588;48.102;19.682;2023-02-02T09:43:30;99187.06;;;4.49;100.00
70930;BME280;58588;48.102;19.682;2023-02-02T09:46:44;99185.50;;;4.56;100.00
70930;BME280;58588;48.102;19.682;2023-02-02T09:49:55;99182.25;;;4.71;100.00
70930;BME280;58588;48.102;19.682;2023-02-02T09:53:03;99183.03;;;4.89;100.00
70930;BME280;58588;48.102;19.682;2023-02-02T09:56:13;99182.03;;;4.90;100.00
70930;BME280;58588;48.102;19.682;2023-02-02T09:59:20;99189.25;;;5.24;100.00
70930;BME280;58588;48.102;19.682;2023-02-02T10:02:26;99177.25;;;5.02;100.00
70930;BME280;58588;48.102;19.682;2023-02-02T10:05:37;99174.44;;;4.77;100.00
70930;BME280;58588;48.102;19.682;2023-02-02T10:08:46;99174.94;;;4.99;100.00
70930;BME280;58588;48.102;19.682;2023-02-02T10:11:55;99165.16;;;5.16;100.00
70930;BME280;58588;48.102;19.682;2023-02-02T10:15:02;99178.13;;;5.36;100.00
70930;BME280;58588;48.102;19.682;2023-02-02T10:18:16;99175.63;;;5.35;100.00
70930;BME280;58588;48.102;19.682;2023-02-02T10:21:25;99177.44;;;5.00;100.00
70930;BME280;58588;48.102;19.682;2023-02-02T10:24:30;99177.31;;;4.84;100.00
70930;BME280;58588;48.102;19.682;2023-02-02T10:27:37;99178.31;;;4.83;100.00
70930;BME280;58588;48.102;19.682;2023-02-02T10:30:44;99189.63;;;4.77;100.00
70930;BME280;58588;48.102;19.682;2023-02-02T10:33:59;99184.53;;;4.92;100.00
70930;BME280;58588;48.102;19.682;2023-02-02T10:37:13;99176.75;;;4.98;100.00
70930;BME280;58588;48.102;19.682;2023-02-02T10:40:30;99176.22;;;4.95;100.00
70930;BME280;58588;48.102;19.682;2023-02-02T10:43:58;99176.91;;;4.97;100.00
70930;BME280;58588;48.102;19.682;2023-02-02T10:47:04;99166.59;;;5.02;100.00
70930;BME280;58588;48.102;19.682;2023-02-02T10:50:17;99175.59;;;5.01;100.00
70930;BME280;58588;48.102;19.682;2023-02-02T10:53:19;99178.28;;;5.35;100.00
70930;BME280;58588;48.102;19.682;2023-02-02T10:56:32;99168.53;;;5.68;100.00
70930;BME280;58588;48.102;19.682;2023-02-02T10:59:43;99167.69;;;5.59;100.00
70930;BME280;58588;48.102;19.682;2023-02-02T11:02:50;99175.81;;;5.42;100.00
70930;BME280;58588;48.102;19.682;2023-02-02T11:05:53;99173.78;;;5.35;100.00
70930;BME280;58588;48.102;19.682;2023-02-02T11:09:13;99168.25;;;5.37;100.00
70930;BME280;58588;48.102;19.682;2023-02-02T11:12:23;99155.25;;;5.34;100.00
70930;BME280;58588;48.102;19.682;2023-02-02T11:15:29;99166.31;;;5.98;100.00
70930;BME280;58588;48.102;19.682;2023-02-02T11:18:31;99162.16;;;6.20;100.00
70930;BME280;58588;48.102;19.682;2023-02-02T11:21:34;99158.97;;;6.57;99.52
70930;BME280;58588;48.102;19.682;2023-02-02T11:24:43;99161.50;;;6.50;100.00
70930;BME280;58588;48.102;19.682;2023-02-02T11:27:46;99147.25;;;6.33;99.09
70930;BME280;58588;48.102;19.682;2023-02-02T11:30:51;99138.53;;;6.48;98.88
70930;BME280;58588;48.102;19.682;2023-02-02T11:33:53;99146.25;;;6.02;98.65
70930;BME280;58588;48.102;19.682;2023-02-02T11:37:12;99134.56;;;6.27;98.89
70930;BME280;58588;48.102;19.682;2023-02-02T11:40:26;99138.91;;;6.36;97.99
70930;BME280;58588;48.102;19.682;2023-02-02T11:43:30;99132.88;;;6.42;98.90
70930;BME280;58588;48.102;19.682;2023-02-02T11:46:37;99153.47;;;6.42;95.84
70930;BME280;58588;48.102;19.682;2023-02-02T11:49:41;99136.72;;;6.40;96.26
70930;BME280;58588;48.102;19.682;2023-02-02T11:52:44;99133.34;;;6.70;97.81
70930;BME280;58588;48.102;19.682;2023-02-02T11:55:47;99117.44;;;7.24;96.58
70930;BME280;58588;48.102;19.682;2023-02-02T11:58:50;99132.25;;;7.04;92.98
70930;BME280;58588;48.102;19.682;2023-02-02T12:02:12;99131.03;;;6.35;93.64
70930;BME280;58588;48.102;19.682;2023-02-02T12:05:35;99122.16;;;6.67;94.92
70930;BME280;58588;48.102;19.682;2023-02-02T12:08:37;99121.31;;;6.66;91.57
70930;BME280;58588;48.102;19.682;2023-02-02T12:11:48;99136.16;;;6.85;93.12
70930;BME280;58588;48.102;19.682;2023-02-02T12:14:57;99139.06;;;6.35;91.08
70930;BME280;58588;48.102;19.682;2023-02-02T12:18:23;99134.72;;;6.09;94.54
70930;BME280;58588;48.102;19.682;2023-02-02T12:21:36;99146.84;;;5.79;94.02
70930;BME280;58588;48.102;19.682;2023-02-02T12:24:47;99148.50;;;5.80;94.98
70930;BME280;58588;48.102;19.682;2023-02-02T12:27:57;99157.13;;;6.00;97.44
70930;BME280;58588;48.102;19.682;2023-02-02T12:31:08;99153.84;;;5.80;95.88
70930;BME280;58588;48.102;19.682;2023-02-02T12:34:23;99146.69;;;5.89;96.60
70930;BME280;58588;48.102;19.682;2023-02-02T12:37:40;99156.28;;;5.57;95.41
70930;BME280;58588;48.102;19.682;2023-02-02T12:41:06;99156.28;;;5.49;97.16
70930;BME280;58588;48.102;19.682;2023-02-02T12:44:15;99153.63;;;5.57;97.80
70930;BME280;58588;48.102;19.682;2023-02-02T12:47:24;99152.66;;;5.67;97.70
70930;BME280;58588;48.102;19.682;2023-02-02T12:50:32;99158.38;;;5.72;96.99
70930;BME280;58588;48.102;19.682;2023-02-02T12:53:54;99163.16;;;5.52;97.25
70930;BME280;58588;48.102;19.682;2023-02-02T12:57:01;99168.53;;;5.60;97.95
70930;BME280;58588;48.102;19.682;2023-02-02T13:00:16;99161.97;;;5.54;98.23
70930;BME280;58588;48.102;19.682;2023-02-02T13:03:27;99161.84;;;5.64;98.27
70930;BME280;58588;48.102;19.682;2023-02-02T13:06:47;99166.19;;;5.65;97.87
70930;BME280;58588;48.102;19.682;2023-02-02T13:10:15;99157.66;;;5.61;97.16
70930;BME280;58588;48.102;19.682;2023-02-02T13:13:22;99164.53;;;5.64;96.22
70930;BME280;58588;48.102;19.682;2023-02-02T13:16:27;99164.34;;;5.66;94.95
70930;BME280;58588;48.102;19.682;2023-02-02T13:19:34;99169.38;;;5.69;93.53
70930;BME280;58588;48.102;19.682;2023-02-02T13:22:41;99168.09;;;5.89;93.71
70930;BME280;58588;48.102;19.682;2023-02-02T13:25:47;99170.72;;;5.73;92.79
70930;BME280;58588;48.102;19.682;2023-02-02T13:28:53;99171.38;;;5.75;92.04
70930;BME280;58588;48.102;19.682;2023-02-02T13:32:02;99170.25;;;5.85;94.50
70930;BME280;58588;48.102;19.682;2023-02-02T13:35:13;99174.88;;;5.67;93.12
70930;BME280;58588;48.102;19.682;2023-02-02T13:38:21;99177.91;;;5.72;92.62
70930;BME280;58588;48.102;19.682;2023-02-02T13:41:24;99175.75;;;5.76;93.51
70930;BME280;58588;48.102;19.682;2023-02-02T13:44:31;99180.59;;;5.72;95.31
70930;BME280;58588;48.102;19.682;2023-02-02T13:47:36;99177.09;;;5.72;94.86
70930;BME280;58588;48.102;19.682;2023-02-02T13:50:49;99184.56;;;5.68;95.96
70930;BME280;58588;48.102;19.682;2023-02-02T13:57:47;99191.59;;;5.69;95.95
70930;BME280;58588;48.102;19.682;2023-02-02T14:00:54;99193.25;;;5.62;95.07
70930;BME280;58588;48.102;19.682;2023-02-02T14:04:00;99188.06;;;5.60;94.92
70930;BME280;58588;48.102;19.682;2023-02-02T14:07:07;99189.19;;;5.50;95.19
70930;BME280;58588;48.102;19.682;2023-02-02T14:10:32;99188.84;;;5.45;96.14
70930;BME280;58588;48.102;19.682;2023-02-02T14:13:49;99199.88;;;5.42;97.75
70930;BME280;58588;48.102;19.682;2023-02-02T14:17:53;99193.53;;;5.51;98.86
70930;BME280;58588;48.102;19.682;2023-02-02T14:20:55;99217.56;;;5.43;97.07
70930;BME280;58588;48.102;19.682;2023-02-02T14:23:58;99207.53;;;5.36;96.67
70930;BME280;58588;48.102;19.682;2023-02-02T14:27:40;99202.72;;;5.48;98.32
70930;BME280;58588;48.102;19.682;2023-02-02T14:34:34;99209.84;;;5.40;97.38
70930;BME280;58588;48.102;19.682;2023-02-02T14:37:47;99211.84;;;5.29;98.65
70930;BME280;58588;48.102;19.682;2023-02-02T14:40:58;99203.13;;;5.27;98.73
70930;BME280;58588;48.102;19.682;2023-02-02T14:44:07;99208.16;;;5.30;99.05
70930;BME280;58588;48.102;19.682;2023-02-02T14:50:46;99202.34;;;5.09;100.00
70930;BME280;58588;48.102;19.682;2023-02-02T14:53:51;99195.50;;;5.06;100.00
70930;BME280;58588;48.102;19.682;2023-02-02T14:56:58;99202.28;;;4.93;100.00
70930;BME280;58588;48.102;19.682;2023-02-02T15:00:19;99211.56;;;4.89;100.00
70930;BME280;58588;48.102;19.682;2023-02-02T15:03:34;99213.81;;;4.75;100.00
70930;BME280;58588;48.102;19.682;2023-02-02T15:06:37;99222.28;;;4.71;100.00
70930;BME280;58588;48.102;19.682;2023-02-02T15:09:42;99228.41;;;4.63;100.00
70930;BME280;58588;48.102;19.682;2023-02-02T15:12:45;99215.53;;;4.59;100.00
70930;BME280;58588;48.102;19.682;2023-02-02T15:16:00;99225.03;;;4.61;100.00
70930;BME280;58588;48.102;19.682;2023-02-02T15:19:19;99240.56;;;4.57;100.00
70930;BME280;58588;48.102;19.682;2023-02-02T15:22:49;99229.66;;;4.51;100.00
70930;BME280;58588;48.102;19.682;2023-02-02T15:25:58;99240.09;;;4.44;100.00
70930;BME280;58588;48.102;19.682;2023-02-02T15:29:05;99241.69;;;4.37;100.00
70930;BME280;58588;48.102;19.682;2023-02-02T15:32:14;99254.41;;;4.43;100.00
70930;BME280;58588;48.102;19.682;2023-02-02T15:35:20;99249.78;;;4.27;100.00
70930;BME280;58588;48.102;19.682;2023-02-02T15:38:31;99251.63;;;4.27;100.00
70930;BME280;58588;48.102;19.682;2023-02-02T15:41:36;99263.56;;;4.23;100.00
70930;BME280;58588;48.102;19.682;2023-02-02T15:44:43;99272.84;;;4.19;100.00
70930;BME280;58588;48.102;19.682;2023-02-02T15:47:47;99274.00;;;4.16;100.00
70930;BME280;58588;48.102;19.682;2023-02-02T15:50:51;99278.19;;;4.19;100.00
70930;BME280;58588;48.102;19.682;2023-02-02T15:53:55;99287.25;;;4.08;100.00
70930;BME280;58588;48.102;19.682;2023-02-02T15:56:58;99293.88;;;4.04;100.00
70930;BME280;58588;48.102;19.682;2023-02-02T16:00:22;99295.16;;;4.00;100.00
70930;BME280;58588;48.102;19.682;2023-02-02T16:03:31;99297.41;;;3.95;100.00
70930;BME280;58588;48.102;19.682;2023-02-02T16:06:35;99301.31;;;4.00;100.00
70930;BME280;58588;48.102;19.682;2023-02-02T16:09:38;99298.75;;;3.81;100.00
70930;BME280;58588;48.102;19.682;2023-02-02T16:12:41;99307.31;;;3.85;100.00
70930;BME280;58588;48.102;19.682;2023-02-02T16:15:53;99317.28;;;3.83;100.00
70930;BME280;58588;48.102;19.682;2023-02-02T16:19:11;99317.88;;;4.04;100.00
70930;BME280;58588;48.102;19.682;2023-02-02T16:22:16;99317.31;;;4.00;100.00
70930;BME280;58588;48.102;19.682;2023-02-02T16:25:20;99320.31;;;3.97;100.00
70930;BME280;58588;48.102;19.682;2023-02-02T16:28:23;99334.34;;;3.90;100.00
70930;BME280;58588;48.102;19.682;2023-02-02T16:31:26;99332.69;;;3.89;100.00
70930;BME280;58588;48.102;19.682;2023-02-02T16:34:44;99335.50;;;3.87;100.00